createdAt,value
2023-05-06T00:01:01.632Z,17.20
2023-05-06T00:03:28.817Z,17.20
2023-05-06T00:05:56.336Z,17.10
2023-05-06T00:08:23.112Z,17.10
2023-05-06T00:10:49.802Z,17.10
2023-05-06T00:13:16.639Z,17.10
2023-05-06T00:15:43.472Z,17.10
2023-05-06T00:18:10.272Z,17.10
2023-05-06T00:20:37.129Z,17.10
2023-05-06T00:23:03.856Z,17.10
2023-05-06T01:02:20.694Z,17.10
2023-05-06T01:04:47.535Z,16.90
2023-05-06T01:07:30.891Z,16.90
2023-05-06T01:10:13.593Z,16.90
2023-05-06T01:13:04.632Z,16.90
2023-05-06T01:15:39.457Z,16.90
2023-05-06T01:18:10.731Z,16.90
2023-05-06T01:20:40.034Z,16.80
2023-05-06T01:23:11.976Z,16.80
2023-05-06T01:25:39.109Z,16.80
2023-05-06T01:28:10.169Z,16.80
2023-05-06T01:30:40.994Z,16.80
2023-05-06T01:33:20.055Z,16.80
2023-05-06T01:35:58.353Z,16.80
2023-05-06T01:38:41.948Z,16.70
2023-05-06T01:41:11.103Z,16.70
2023-05-06T01:43:43.209Z,16.70
2023-05-06T01:46:15.165Z,16.70
2023-05-06T01:48:42.912Z,16.60
2023-05-06T01:51:09.640Z,16.60
2023-05-06T01:53:36.402Z,16.60
2023-05-06T01:56:03.414Z,16.60
2023-05-06T01:58:30.088Z,16.60
2023-05-06T02:00:56.734Z,16.60
2023-05-06T02:03:23.511Z,16.50
2023-05-06T02:05:50.230Z,16.50
2023-05-06T02:08:17.011Z,16.50
2023-05-06T02:10:43.787Z,16.50
2023-05-06T02:13:12.480Z,16.50
2023-05-06T02:15:39.302Z,16.40
2023-05-06T02:18:05.989Z,16.40
2023-05-06T02:20:32.640Z,16.40
2023-05-06T02:22:59.315Z,16.40
2023-05-06T02:25:26.037Z,16.40
2023-05-06T02:27:52.722Z,16.40
2023-05-06T02:30:19.467Z,16.40
2023-05-06T02:32:47.149Z,16.40
2023-05-06T02:35:14.017Z,16.30
2023-05-06T02:37:40.673Z,16.30
2023-05-06T02:40:09.029Z,16.30
2023-05-06T02:59:45.721Z,16.30
2023-05-06T03:02:12.421Z,16.20
2023-05-06T03:04:39.093Z,16.10
2023-05-06T03:07:05.758Z,16.10
2023-05-06T03:09:32.470Z,16.10
2023-05-06T03:11:59.172Z,16.10
2023-05-06T03:14:26.140Z,16.10
2023-05-06T03:16:52.980Z,16.10
2023-05-06T03:19:19.695Z,16.00
2023-05-06T03:21:46.402Z,16.00
2023-05-06T03:24:13.084Z,16.00
2023-05-06T03:26:39.990Z,16.00
2023-05-06T03:29:06.652Z,16.00
2023-05-06T03:31:33.336Z,16.00
2023-05-06T03:34:00.190Z,15.90
2023-05-06T03:36:27.914Z,15.90
2023-05-06T03:38:55.164Z,15.90
2023-05-06T03:41:23.773Z,15.90
2023-05-06T03:43:50.560Z,15.90
2023-05-06T03:46:17.376Z,15.90
2023-05-06T03:53:38.449Z,15.80
2023-05-06T03:56:05.540Z,15.80
2023-05-06T03:58:32.255Z,15.80
2023-05-06T04:01:00.951Z,15.80
2023-05-06T04:03:27.791Z,15.80
2023-05-06T04:05:54.629Z,15.80
2023-05-06T04:08:21.289Z,15.80
2023-05-06T04:10:48.008Z,15.70
2023-05-06T04:13:14.989Z,15.70
2023-05-06T04:15:41.691Z,15.70
2023-05-06T04:18:08.629Z,15.70
2023-05-06T04:20:35.762Z,15.70
2023-05-06T04:23:02.619Z,15.70
2023-05-06T04:25:29.849Z,15.70
2023-05-06T04:27:56.540Z,15.70
2023-05-06T04:30:23.240Z,15.70
2023-05-06T04:32:49.915Z,15.60
2023-05-06T04:35:16.747Z,15.60
2023-05-06T04:37:43.601Z,15.60
2023-05-06T04:40:12.914Z,15.60
2023-05-06T04:42:41.927Z,15.60
2023-05-06T04:45:09.653Z,15.60
2023-05-06T04:47:36.653Z,15.60
2023-05-06T04:50:04.458Z,15.60
2023-05-06T04:52:31.484Z,15.60
2023-05-06T04:54:58.160Z,15.60
2023-05-06T04:57:24.831Z,15.60
2023-05-06T04:59:51.498Z,15.60
2023-05-06T05:02:18.243Z,15.60
2023-05-06T05:04:44.957Z,15.50
2023-05-06T05:07:11.745Z,15.60
2023-05-06T05:09:38.885Z,15.60
2023-05-06T05:12:05.786Z,15.60
2023-05-06T05:14:32.468Z,15.60
2023-05-06T05:16:59.211Z,15.60
2023-05-06T05:19:25.981Z,15.70
2023-05-06T05:21:52.728Z,15.70
2023-05-06T05:24:19.404Z,15.70
2023-05-06T05:26:46.077Z,15.70
2023-05-06T05:29:12.754Z,15.80
2023-05-06T05:31:40.007Z,15.80
2023-05-06T05:34:07.532Z,15.90
2023-05-06T05:36:34.204Z,15.90
2023-05-06T05:39:00.942Z,15.90
2023-05-06T05:41:27.685Z,15.90
2023-05-06T05:43:54.379Z,15.90
2023-05-06T05:46:21.262Z,16.00
2023-05-06T05:48:48.030Z,16.00
2023-05-06T05:51:14.765Z,16.00
2023-05-06T05:53:41.476Z,16.00
2023-05-06T05:56:08.266Z,16.10
2023-05-06T05:58:34.967Z,16.10
2023-05-06T06:01:01.711Z,16.10
2023-05-06T06:03:28.712Z,16.10
2023-05-06T06:05:55.635Z,16.20
2023-05-06T06:08:22.419Z,16.10
2023-05-06T06:10:49.102Z,16.20
2023-05-06T06:13:15.942Z,16.20
2023-05-06T06:15:43.794Z,16.20
2023-05-06T06:18:10.720Z,16.20
2023-05-06T06:20:37.569Z,16.20
2023-05-06T06:23:04.332Z,16.20
2023-05-06T06:25:31.096Z,16.30
2023-05-06T06:27:58.834Z,16.30
2023-05-06T06:30:25.731Z,16.30
2023-05-06T06:32:53.854Z,16.30
2023-05-06T06:35:20.666Z,16.30
2023-05-06T06:37:47.693Z,16.30
2023-05-06T06:40:14.699Z,16.30
2023-05-06T06:42:41.706Z,16.30
2023-05-06T06:45:09.850Z,16.40
2023-05-06T06:47:36.822Z,16.40
2023-05-06T06:50:05.028Z,16.40
2023-05-06T06:52:31.831Z,16.50
2023-05-06T06:55:00.044Z,16.50
2023-05-06T06:57:26.789Z,16.50
2023-05-06T06:59:54.758Z,16.50
2023-05-06T07:02:22.139Z,16.60
2023-05-06T07:04:49.261Z,16.60
2023-05-06T07:07:16.010Z,16.60
2023-05-06T07:09:44.264Z,16.60
2023-05-06T07:12:11.329Z,16.70
2023-05-06T07:14:38.148Z,16.70
2023-05-06T07:17:04.999Z,16.70
2023-05-06T07:24:26.562Z,16.80
2023-05-06T07:26:53.251Z,16.80
2023-05-06T07:29:19.962Z,16.80
2023-05-06T07:31:46.717Z,16.80
2023-05-06T07:34:13.438Z,16.90
2023-05-06T07:36:40.818Z,16.90
2023-05-06T07:39:07.871Z,16.90
2023-05-06T07:41:34.898Z,17.00
2023-05-06T07:44:01.596Z,17.00
2023-05-06T07:46:28.641Z,17.00
2023-05-06T07:48:55.516Z,17.10
2023-05-06T07:51:22.291Z,17.10
2023-05-06T07:53:48.930Z,17.10
2023-05-06T07:58:43.828Z,17.10
2023-05-06T08:01:10.492Z,17.10
2023-05-06T08:03:37.396Z,17.20
2023-05-06T08:06:04.420Z,17.20
2023-05-06T08:08:31.258Z,17.20
2023-05-06T08:10:58.809Z,17.30
2023-05-06T08:13:26.222Z,17.30
2023-05-06T08:15:53.215Z,17.30
2023-05-06T08:18:22.760Z,17.30
2023-05-06T08:20:51.159Z,17.30
2023-05-06T08:35:34.783Z,17.40
2023-05-06T08:38:02.542Z,17.60
2023-05-06T08:40:32.638Z,17.60
2023-05-06T08:43:02.691Z,17.60
2023-05-06T08:45:29.770Z,17.60
2023-05-06T08:47:56.496Z,17.60
2023-05-06T08:50:24.844Z,17.70
2023-05-06T08:52:51.804Z,17.70
2023-05-06T08:55:19.711Z,17.70
2023-05-06T08:57:47.325Z,17.80
2023-05-06T09:00:15.093Z,17.80
2023-05-06T09:02:43.389Z,17.80
2023-05-06T09:05:11.429Z,17.90
2023-05-06T09:07:38.376Z,17.90
2023-05-06T09:10:12.901Z,17.90
2023-05-06T09:12:40.065Z,17.90
2023-05-06T09:17:34.814Z,18.00
2023-05-06T09:40:00.522Z,18.00
2023-05-06T09:42:29.906Z,18.40
2023-05-06T09:45:01.258Z,18.40
2023-05-06T09:47:34.032Z,18.40
2023-05-06T09:50:04.515Z,18.40
2023-05-06T09:52:31.676Z,18.50
2023-05-06T09:54:59.310Z,18.50
2023-05-06T09:57:26.745Z,18.50
2023-05-06T09:59:55.508Z,18.60
2023-05-06T10:02:23.901Z,18.60
2023-05-06T10:04:51.171Z,18.60
2023-05-06T10:07:23.505Z,18.70
2023-05-06T10:09:51.571Z,18.70
2023-05-06T10:12:19.905Z,18.70
2023-05-06T10:14:49.859Z,18.70
2023-05-06T10:17:18.981Z,18.80
2023-05-06T10:19:46.884Z,18.80
2023-05-06T10:22:22.698Z,18.80
2023-05-06T10:24:59.060Z,18.90
2023-05-06T10:27:28.792Z,18.90
2023-05-06T10:29:59.531Z,18.90
2023-05-06T10:32:31.285Z,19.00
2023-05-06T10:35:05.747Z,19.00
2023-05-06T10:37:34.662Z,19.10
2023-05-06T10:40:04.142Z,19.10
2023-05-06T10:42:35.547Z,19.10
2023-05-06T10:45:06.581Z,19.10
2023-05-06T10:47:56.899Z,19.10
2023-05-06T10:50:25.261Z,19.20
2023-05-06T10:52:57.324Z,19.20
2023-05-06T11:07:52.451Z,19.30
2023-05-06T11:21:00.388Z,19.40
2023-05-06T11:23:42.156Z,19.60
2023-05-06T11:26:10.100Z,19.60
2023-05-06T11:28:38.641Z,19.60
2023-05-06T11:31:10.045Z,19.60
2023-05-06T11:33:46.427Z,19.60
2023-05-06T11:36:18.107Z,19.70
2023-05-06T11:38:56.490Z,19.70
2023-05-06T11:41:23.433Z,19.70
2023-05-06T11:44:32.783Z,19.70
2023-05-06T11:47:09.479Z,19.80
2023-05-06T12:07:18.315Z,19.80
2023-05-06T12:54:49.825Z,20.10
2023-05-06T13:19:33.959Z,20.60
2023-05-06T13:22:01.408Z,20.80
2023-05-06T13:24:28.631Z,20.80
2023-05-06T13:26:57.029Z,20.80
2023-05-06T13:29:24.464Z,20.80
2023-05-06T14:25:55.889Z,20.90
2023-05-06T14:28:22.599Z,21.30
2023-05-06T14:30:51.394Z,21.30
2023-05-06T14:33:18.193Z,21.40
2023-05-06T14:35:46.088Z,21.30
2023-05-06T14:38:12.764Z,21.40
2023-05-06T14:40:39.447Z,21.40
2023-05-06T14:43:07.631Z,21.40
2023-05-06T14:45:34.717Z,21.50
2023-05-06T14:48:01.870Z,21.50
2023-05-06T14:50:29.651Z,21.60
2023-05-06T14:52:56.445Z,21.60
2023-05-06T14:55:23.230Z,21.60
2023-05-06T14:57:49.867Z,21.60
2023-05-06T15:00:17.675Z,21.60
2023-05-06T15:02:44.390Z,21.60
2023-05-06T15:05:12.259Z,21.60
2023-05-06T15:07:39.353Z,21.60
2023-05-06T15:10:06.710Z,21.60
2023-05-06T15:12:34.249Z,21.60
2023-05-06T15:15:01.013Z,21.70
2023-05-06T15:17:27.801Z,21.60
2023-05-06T15:19:54.574Z,21.70
2023-05-06T15:22:21.301Z,21.70
2023-05-06T15:24:48.072Z,21.60
2023-05-06T15:27:15.215Z,21.70
2023-05-06T15:29:41.951Z,21.70
2023-05-06T15:32:08.989Z,21.70
2023-05-06T15:34:35.842Z,21.70
2023-05-06T15:37:05.690Z,21.70
2023-05-06T15:39:38.589Z,21.70
2023-05-06T15:42:06.144Z,21.70
2023-05-06T15:44:33.786Z,21.70
2023-05-06T15:47:00.750Z,21.80
2023-05-06T15:49:51.096Z,21.80
2023-05-06T15:52:14.314Z,21.70
2023-05-06T15:54:41.157Z,21.70
2023-05-06T15:57:08.094Z,21.80
2023-05-06T15:59:34.797Z,21.80
2023-05-06T16:04:36.621Z,21.80
2023-05-06T16:07:03.520Z,21.80
2023-05-06T16:09:30.277Z,21.80
2023-05-06T16:11:59.986Z,21.80
2023-05-06T16:14:26.712Z,21.80
2023-05-06T16:16:53.470Z,21.80
2023-05-06T16:19:20.154Z,21.80
2023-05-06T16:21:48.292Z,21.80
2023-05-06T16:24:15.952Z,21.80
2023-05-06T16:26:42.654Z,21.80
2023-05-06T16:29:10.147Z,21.80
2023-05-06T16:31:37.417Z,21.80
2023-05-06T16:34:04.358Z,21.80
2023-05-06T16:36:31.458Z,21.80
2023-05-06T16:38:58.231Z,21.80
2023-05-06T16:41:24.953Z,21.90
2023-05-06T16:43:51.716Z,21.90
2023-05-06T16:46:18.567Z,21.80
2023-05-06T16:48:45.387Z,21.90
2023-05-06T16:51:14.308Z,21.90
2023-05-06T16:53:42.816Z,21.90
2023-05-06T16:56:10.933Z,21.90
2023-05-06T16:58:37.600Z,21.90
2023-05-06T17:01:07.911Z,21.90
2023-05-06T17:03:37.749Z,21.90
2023-05-06T17:06:05.894Z,21.90
2023-05-06T17:08:36.023Z,21.90
2023-05-06T17:11:06.154Z,21.90
2023-05-06T17:13:33.160Z,21.90
2023-05-06T17:15:59.963Z,21.90
2023-05-06T17:18:26.678Z,21.90
2023-05-06T17:20:56.676Z,21.90
2023-05-06T17:23:24.485Z,21.80
2023-05-06T17:25:51.443Z,21.90
2023-05-06T17:28:18.873Z,21.90
2023-05-06T17:30:46.181Z,21.90
2023-05-06T17:33:12.995Z,21.90
2023-05-06T17:35:39.921Z,21.90
2023-05-06T17:38:07.968Z,21.90
2023-05-06T17:40:34.755Z,21.80
2023-05-06T17:43:01.670Z,21.80
2023-05-06T17:45:28.662Z,21.80
2023-05-06T17:47:56.386Z,21.70
2023-05-06T17:50:23.349Z,21.70
2023-05-06T17:53:03.051Z,21.60
2023-05-06T17:55:29.916Z,21.50
2023-05-06T17:57:57.362Z,21.40
2023-05-06T18:00:24.180Z,21.40
2023-05-06T18:02:51.071Z,21.40
2023-05-06T18:05:18.521Z,21.30
2023-05-06T18:07:45.400Z,21.30
2023-05-06T18:10:12.131Z,21.30
2023-05-06T18:12:38.958Z,21.20
2023-05-06T18:15:06.480Z,21.20
2023-05-06T18:17:33.562Z,21.20
2023-05-06T18:20:00.343Z,21.20
2023-05-06T18:22:27.010Z,21.20
2023-05-06T18:24:55.359Z,21.10
2023-05-06T18:27:22.805Z,21.10
2023-05-06T18:29:49.590Z,21.00
2023-05-06T18:32:19.581Z,21.00
2023-05-06T18:34:46.247Z,21.00
2023-05-06T18:37:13.017Z,20.90
2023-05-06T18:39:41.593Z,21.00
2023-05-06T18:42:09.060Z,21.00
2023-05-06T18:44:35.784Z,21.00
2023-05-06T18:47:02.513Z,21.00
2023-05-06T18:49:30.667Z,20.90
2023-05-06T18:51:57.432Z,20.90
2023-05-06T18:54:24.550Z,20.80
2023-05-06T18:56:54.764Z,20.80
2023-05-06T18:59:21.898Z,20.80
2023-05-06T19:01:48.577Z,20.80
2023-05-06T19:04:15.411Z,20.80
2023-05-06T19:06:42.206Z,20.80
2023-05-06T19:09:08.905Z,20.80
2023-05-06T19:11:35.757Z,20.80
2023-05-06T19:14:02.753Z,20.80
2023-05-06T19:16:29.508Z,20.80
2023-05-06T19:18:56.204Z,20.80
2023-05-06T19:21:23.103Z,20.80
2023-05-06T19:23:50.160Z,20.80
2023-05-06T19:26:16.942Z,20.80
2023-05-06T19:28:43.709Z,20.80
2023-05-06T19:31:11.427Z,20.80
2023-05-06T19:33:38.988Z,20.80
2023-05-06T19:36:06.186Z,20.80
2023-05-06T19:38:33.026Z,20.80
2023-05-06T19:40:59.822Z,20.80
2023-05-06T19:43:26.505Z,20.80
2023-05-06T19:45:53.224Z,20.80
2023-05-06T19:48:20.593Z,20.80
2023-05-06T19:50:47.399Z,20.80
2023-05-06T19:53:14.059Z,20.80
2023-05-06T19:55:41.087Z,20.70
2023-05-06T19:58:07.846Z,20.70
2023-05-06T20:00:34.606Z,20.70
2023-05-06T20:03:01.408Z,20.70
2023-05-06T20:05:32.140Z,20.70
2023-05-06T20:08:02.126Z,20.70
2023-05-06T20:10:29.183Z,20.70
2023-05-06T20:12:57.811Z,20.70
2023-05-06T20:15:25.126Z,20.70
2023-05-06T20:17:51.889Z,20.60
2023-05-06T20:20:18.983Z,20.60
2023-05-06T20:22:45.988Z,20.60
2023-05-06T20:25:17.497Z,20.60
2023-05-06T20:27:45.138Z,20.60
2023-05-06T20:30:12.332Z,20.60
2023-05-06T20:32:40.382Z,20.50
2023-05-06T20:35:07.862Z,20.60
2023-05-06T20:37:35.352Z,20.50
2023-05-06T20:40:04.533Z,20.50
2023-05-06T20:42:32.578Z,20.50
2023-05-06T20:44:59.778Z,20.50
2023-05-06T20:47:27.037Z,20.50
2023-05-06T20:49:54.193Z,20.40
2023-05-06T20:52:21.750Z,20.40
2023-05-06T20:54:48.823Z,20.40
2023-05-06T20:57:16.748Z,20.40
2023-05-06T20:59:43.654Z,20.40
2023-05-06T21:02:10.827Z,20.40
2023-05-06T21:04:37.686Z,20.40
2023-05-06T21:07:04.508Z,20.30
2023-05-06T21:09:31.263Z,20.30
2023-05-06T21:11:58.685Z,20.30
2023-05-06T21:14:26.589Z,20.30
2023-05-06T21:16:53.925Z,20.30
2023-05-06T21:19:20.980Z,20.30
2023-05-06T21:21:48.318Z,20.30
2023-05-06T21:24:15.113Z,20.20
2023-05-06T21:26:41.857Z,20.20
2023-05-06T21:29:08.717Z,20.20
2023-05-06T21:31:35.563Z,20.20
2023-05-06T21:34:04.079Z,20.20
2023-05-06T21:36:31.196Z,20.10
2023-05-06T21:39:07.910Z,20.10
2023-05-06T21:41:35.976Z,20.10
2023-05-06T21:44:04.100Z,20.10
2023-05-06T21:46:32.563Z,20.10
2023-05-06T21:48:59.496Z,20.10
2023-05-06T21:51:32.371Z,20.10
2023-05-06T21:53:59.122Z,20.00
2023-05-06T21:56:25.856Z,20.00
2023-05-06T21:58:55.654Z,20.00
2023-05-06T22:01:23.106Z,20.00
2023-05-06T22:03:49.924Z,20.00
2023-05-06T22:06:17.758Z,19.90
2023-05-06T22:08:44.464Z,19.90
2023-05-06T22:11:11.093Z,19.90
2023-05-06T22:13:37.772Z,19.90
2023-05-06T22:16:04.819Z,19.90
2023-05-06T22:18:32.105Z,19.90
2023-05-06T22:20:59.099Z,19.90
2023-05-06T22:23:25.955Z,19.80
2023-05-06T22:25:52.706Z,19.80
2023-05-06T22:28:19.825Z,19.80
2023-05-06T22:30:46.617Z,19.80
2023-05-06T22:33:13.304Z,19.70
2023-05-06T22:35:40.075Z,19.80
2023-05-06T22:38:08.240Z,19.70
2023-05-06T22:40:37.319Z,19.70
2023-05-06T22:43:04.123Z,19.70
2023-05-06T22:45:30.927Z,19.70
2023-05-06T22:47:57.722Z,19.70
2023-05-06T22:50:25.007Z,19.70
2023-05-06T22:52:51.902Z,19.70
2023-05-06T22:55:18.780Z,19.70
2023-05-06T22:57:47.100Z,19.70
2023-05-06T23:00:13.856Z,19.60
2023-05-06T23:02:40.765Z,19.60
2023-05-06T23:05:07.761Z,19.60
2023-05-06T23:07:34.901Z,19.60
2023-05-06T23:10:01.711Z,19.60
2023-05-06T23:12:32.763Z,19.60
2023-05-06T23:15:00.203Z,19.60
2023-05-06T23:17:26.978Z,19.60
2023-05-06T23:19:53.725Z,19.50
2023-05-06T23:22:20.514Z,19.60
2023-05-06T23:24:47.171Z,19.50
2023-05-06T23:27:13.860Z,19.50
2023-05-06T23:29:40.644Z,19.50
2023-05-06T23:32:07.579Z,19.50
2023-05-06T23:34:34.206Z,19.50
2023-05-06T23:37:00.945Z,19.50
2023-05-06T23:39:27.585Z,19.50
2023-05-06T23:41:54.325Z,19.40
2023-05-06T23:44:21.178Z,19.40
2023-05-06T23:46:47.907Z,19.40
2023-05-06T23:49:15.222Z,19.40
2023-05-06T23:51:41.955Z,19.40
2023-05-06T23:54:08.693Z,19.40
2023-05-06T23:56:35.979Z,19.40
2023-05-06T23:59:02.832Z,19.40
